Time;durP1;ratioP1;P1;durP2;ratioP2;P2;SDS_P1;SDS_P2;PMS_P1;PMS_P2;Temp;Humidity;BMP_temperature;BMP_pressure;BME280_temperature;BME280_humidity;BME280_pressure;Samples;Min_cycle;Max_cycle;Signal;HPM_P1;HPM_P2
2021/12/09 07:00:46;;;;;;;26.52;3.08;;;6.10;99.90;;;;;;5858807;23;20515;-84
2021/12/09 07:03:20;;;;;;;22.25;3.40;;;6.20;99.90;;;;;;4959359;28;20048;-87
2021/12/09 07:05:49;;;;;;;23.05;4.00;;;6.20;99.90;;;;;;4959461;28;20046;-83
2021/12/09 07:08:17;;;;;;;26.45;3.10;;;6.20;99.90;;;;;;4957808;28;20043;-84
2021/12/09 07:10:45;;;;;;;19.42;2.90;;;6.20;99.90;;;;;;4956084;28;20094;-83
2021/12/09 07:13:13;;;;;;;21.35;2.83;;;6.20;99.90;;;;;;4971456;28;20046;-84
2021/12/09 07:15:41;;;;;;;17.45;2.55;;;6.30;99.90;;;;;;4963282;28;20408;-83
2021/12/09 07:18:08;;;;;;;14.98;2.58;;;6.30;99.90;;;;;;4970734;28;20053;-82
2021/12/09 07:20:35;;;;;;;18.77;3.15;;;6.30;99.90;;;;;;4969853;28;20104;-84
2021/12/09 07:23:02;;;;;;;15.52;3.40;;;6.30;99.90;;;;;;4955656;28;20105;-83
2021/12/09 07:25:29;;;;;;;21.92;3.25;;;6.30;99.90;;;;;;4955852;28;20121;-84
2021/12/09 07:27:57;;;;;;;20.17;3.28;;;6.40;99.90;;;;;;4959326;28;20047;-85
2021/12/09 07:30:26;;;;;;;16.83;3.00;;;6.40;99.90;;;;;;4959321;28;20051;-85
2021/12/09 07:32:53;;;;;;;12.65;3.03;;;6.40;99.90;;;;;;4958720;28;20050;-85
2021/12/09 07:35:20;;;;;;;24.77;3.65;;;6.40;99.90;;;;;;4955886;28;20101;-85
2021/12/09 07:37:47;;;;;;;14.32;2.92;;;6.40;99.90;;;;;;4969589;28;20054;-85
2021/12/09 07:40:17;;;;;;;14.88;2.92;;;6.40;99.90;;;;;;4963865;28;20129;-85
2021/12/09 07:42:44;;;;;;;14.07;3.10;;;6.40;99.90;;;;;;4960075;28;20102;-85
2021/12/09 07:45:12;;;;;;;18.35;4.43;;;6.40;99.90;;;;;;4961215;28;20046;-85
2021/12/09 07:47:39;;;;;;;26.08;9.13;;;6.40;99.90;;;;;;4968844;28;20094;-85
2021/12/09 07:50:08;;;;;;;20.48;5.97;;;6.40;99.90;;;;;;4953607;28;20098;-84
2021/12/09 07:52:35;;;;;;;13.15;5.28;;;6.50;99.90;;;;;;4954155;28;20094;-85
2021/12/09 07:55:02;;;;;;;20.08;5.38;;;6.40;99.90;;;;;;4958965;28;20507;-85
2021/12/09 07:57:31;;;;;;;18.85;4.07;;;6.40;99.90;;;;;;4951576;28;20039;-85
2021/12/09 07:59:58;;;;;;;8.98;2.92;;;6.40;99.90;;;;;;4957478;28;20456;-85
2021/12/09 08:02:25;;;;;;;14.23;3.67;;;6.40;99.90;;;;;;4956666;28;20054;-86
2021/12/09 08:04:51;;;;;;;27.58;10.13;;;6.40;99.90;;;;;;4954940;28;20110;-87
2021/12/09 08:07:19;;;;;;;15.18;6.22;;;6.40;99.90;;;;;;4955665;28;20058;-85
2021/12/09 08:09:47;;;;;;;9.43;5.68;;;6.40;99.90;;;;;;4958106;28;20074;-85
2021/12/09 08:12:14;;;;;;;10.80;5.35;;;6.30;99.90;;;;;;4957383;28;20047;-85
2021/12/09 08:14:41;;;;;;;10.25;5.50;;;6.30;99.90;;;;;;4958786;28;20039;-85
2021/12/09 08:17:23;;;;;;;13.23;5.63;;;6.30;99.90;;;;;;4967315;28;20043;-85
2021/12/09 08:19:50;;;;;;;10.60;5.57;;;6.30;99.90;;;;;;4954061;28;20051;-86
2021/12/09 08:22:17;;;;;;;11.07;6.22;;;6.30;99.90;;;;;;4954872;28;20107;-85
2021/12/09 08:24:44;;;;;;;12.13;6.32;;;6.30;99.90;;;;;;4965815;28;20046;-85
2021/12/09 08:27:11;;;;;;;10.68;7.15;;;6.30;99.90;;;;;;4963442;28;20107;-84
2021/12/09 08:29:38;;;;;;;14.50;8.57;;;6.30;99.90;;;;;;4957736;28;20397;-85
2021/12/09 08:32:05;;;;;;;13.98;7.18;;;6.30;99.90;;;;;;4954100;28;20039;-84
2021/12/09 08:34:32;;;;;;;14.38;7.90;;;6.30;99.90;;;;;;4965551;28;20058;-85
2021/12/09 08:36:59;;;;;;;13.95;7.55;;;6.30;99.90;;;;;;4958110;28;20578;-84
2021/12/09 08:39:26;;;;;;;17.65;8.27;;;6.40;99.90;;;;;;4960199;28;20443;-84
2021/12/09 08:41:53;;;;;;;16.02;8.10;;;6.40;99.90;;;;;;4968968;28;20046;-84
2021/12/09 08:44:20;;;;;;;14.57;7.90;;;6.40;99.90;;;;;;4968232;28;20602;-84
2021/12/09 08:46:47;;;;;;;19.83;9.88;;;6.40;99.90;;;;;;4953588;28;20086;-84
2021/12/09 08:49:15;;;;;;;35.10;17.60;;;6.40;99.90;;;;;;4953725;28;20048;-84
2021/12/09 08:51:42;;;;;;;47.03;22.33;;;6.40;99.90;;;;;;4957506;28;20055;-84
2021/12/09 08:54:09;;;;;;;45.83;20.02;;;6.50;99.90;;;;;;4961323;28;20105;-84
2021/12/09 08:56:37;;;;;;;62.55;22.05;;;6.50;99.90;;;;;;4968998;28;20070;-85
2021/12/09 08:59:05;;;;;;;65.15;25.92;;;6.50;99.90;;;;;;4953139;28;20105;-85
2021/12/09 09:01:33;;;;;;;;;;;6.60;99.90;;;;;;4965717;28;20528;-85
2021/12/09 09:04:02;;;;;;;36.80;17.47;;;6.60;99.90;;;;;;4959935;28;19945;-85
2021/12/09 09:06:31;;;;;;;33.05;14.88;;;6.60;99.90;;;;;;4960766;28;20043;-85
2021/12/09 09:08:59;;;;;;;37.75;14.73;;;6.70;99.90;;;;;;4962116;28;20141;-85
2021/12/09 09:11:28;;;;;;;31.60;13.20;;;6.70;99.90;;;;;;4971529;28;20494;-85
2021/12/09 09:13:56;;;;;;;29.92;13.70;;;6.80;99.90;;;;;;4956413;28;20051;-85
2021/12/09 09:16:24;;;;;;;34.80;13.57;;;6.80;99.90;;;;;;4972428;28;20141;-85
2021/12/09 09:18:53;;;;;;;30.92;13.65;;;6.90;99.90;;;;;;4962034;28;20499;-85
2021/12/09 09:21:20;;;;;;;35.90;14.73;;;6.90;99.90;;;;;;4960531;28;20102;-85
2021/12/09 09:23:47;;;;;;;43.55;16.40;;;7.00;99.90;;;;;;4962238;28;20446;-85
2021/12/09 09:26:15;;;;;;;40.05;15.73;;;7.00;99.90;;;;;;4971047;28;20050;-85
2021/12/09 09:28:42;;;;;;;41.65;16.05;;;7.10;99.90;;;;;;4955966;28;20074;-85
2021/12/09 09:31:09;;;;;;;32.90;14.52;;;7.10;99.90;;;;;;4971859;28;20043;-85
2021/12/09 09:33:36;;;;;;;34.42;13.25;;;7.10;99.90;;;;;;4963690;28;20047;-85
2021/12/09 09:36:04;;;;;;;18.70;11.05;;;7.20;99.90;;;;;;4962747;28;20098;-84
2021/12/09 09:38:32;;;;;;;55.85;28.48;;;7.20;99.90;;;;;;4970100;28;20046;-85
2021/12/09 09:41:10;;;;;;;66.85;35.60;;;7.30;99.90;;;;;;4955982;28;20105;-85
2021/12/09 09:46:26;;;;;;;52.63;23.35;;;7.40;99.90;;;;;;4971517;28;20050;-85
2021/12/09 09:48:55;;;;;;;42.47;18.27;;;7.40;99.90;;;;;;4960686;28;20074;-85
2021/12/09 09:51:24;;;;;;;65.60;19.35;;;7.40;99.90;;;;;;4959470;28;20043;-85
2021/12/09 09:53:51;;;;;;;80.10;18.60;;;7.50;99.90;;;;;;4960851;28;20054;-84
2021/12/09 09:56:21;;;;;;;53.85;16.00;;;7.50;99.90;;;;;;4971270;28;20046;-84
2021/12/09 09:58:55;;;;;;;82.07;15.45;;;7.50;99.90;;;;;;4971115;28;20470;-84
2021/12/09 10:01:24;;;;;;;46.15;14.82;;;7.50;99.90;;;;;;4955768;28;20138;-85
2021/12/09 10:03:58;;;;;;;55.28;14.05;;;7.50;99.90;;;;;;4960300;28;20058;-85
2021/12/09 10:06:25;;;;;;;50.08;12.68;;;7.50;99.90;;;;;;4959561;28;20484;-85
2021/12/09 10:08:52;;;;;;;34.55;13.38;;;7.50;99.90;;;;;;4960115;28;20101;-85
2021/12/09 10:11:19;;;;;;;66.50;13.35;;;7.50;99.90;;;;;;4956202;28;20043;-85
2021/12/09 10:13:46;;;;;;;34.35;12.68;;;7.50;99.90;;;;;;4970046;28;20055;-85
2021/12/09 10:16:22;;;;;;;38.28;13.68;;;7.50;99.90;;;;;;4969302;28;20046;-85
2021/12/09 10:18:52;;;;;;;37.03;14.13;;;7.50;99.90;;;;;;4961344;28;20055;-85
2021/12/09 10:21:25;;;;;;;31.88;13.93;;;7.50;99.90;;;;;;4959132;28;20488;-85
2021/12/09 10:24:05;;;;;;;30.23;13.02;;;7.50;99.90;;;;;;4959860;28;20058;-85
2021/12/09 10:26:45;;;;;;;37.88;13.82;;;7.50;99.90;;;;;;4959197;28;20098;-85
2021/12/09 10:29:13;;;;;;;58.83;14.70;;;7.50;99.90;;;;;;4953644;28;20046;-85
2021/12/09 10:31:52;;;;;;;31.38;13.32;;;7.60;99.90;;;;;;4955382;28;20047;-85
2021/12/09 10:34:40;;;;;;;33.95;12.10;;;7.60;99.90;;;;;;4956201;28;20047;-85
2021/12/09 10:37:24;;;;;;;18.80;12.15;;;7.60;99.90;;;;;;4969235;28;20046;-84
2021/12/09 10:39:56;;;;;;;14.52;9.95;;;7.70;99.90;;;;;;4970527;28;20520;-85
2021/12/09 10:42:31;;;;;;;23.05;11.45;;;7.70;99.90;;;;;;4964423;28;22418;-85
2021/12/09 10:45:01;;;;;;;19.17;12.02;;;7.70;99.90;;;;;;4959705;28;20051;-86
2021/12/09 10:50:21;;;;;;;20.88;12.95;;;7.90;99.90;;;;;;4969953;28;20086;-84
2021/12/09 10:52:54;;;;;;;20.13;12.10;;;7.90;99.90;;;;;;4968244;28;20046;-85
2021/12/09 10:55:29;;;;;;;18.30;12.77;;;8.00;99.90;;;;;;4955372;28;20047;-85
2021/12/09 10:58:06;;;;;;;13.52;10.00;;;8.00;99.90;;;;;;4968079;28;20043;-85
2021/12/09 11:00:45;;;;;;;20.73;11.70;;;8.00;99.90;;;;;;4961842;28;20055;-85
2021/12/09 11:03:37;;;;;;;20.85;12.70;;;8.10;99.90;;;;;;4963144;28;20129;-86
2021/12/09 11:06:13;;;;;;;14.88;10.52;;;8.10;99.90;;;;;;4963358;28;20066;-84
2021/12/09 11:08:44;;;;;;;29.63;10.75;;;8.10;99.90;;;;;;4959383;28;20128;-86
2021/12/09 11:11:16;;;;;;;26.83;13.90;;;8.20;99.90;;;;;;4953604;28;20042;-85
2021/12/09 11:13:58;;;;;;;19.33;11.02;;;8.20;99.90;;;;;;4969800;28;20113;-85
2021/12/09 11:16:34;;;;;;;17.77;11.75;;;8.20;99.90;;;;;;4954958;28;20051;-86
2021/12/09 11:19:14;;;;;;;17.40;11.43;;;8.30;99.90;;;;;;4959094;28;20051;-85
2021/12/09 11:21:55;;;;;;;17.88;13.02;;;8.30;99.90;;;;;;4967214;28;20038;-86
2021/12/09 11:24:24;;;;;;;25.15;18.20;;;8.40;99.90;;;;;;4963760;28;20051;-86
2021/12/09 11:26:55;;;;;;;;;;;8.50;99.90;;;;;;4961548;28;20510;-86
2021/12/09 11:29:30;;;;;;;25.05;17.17;;;8.50;99.90;;;;;;4969753;28;19922;-85
2021/12/09 11:34:46;;;;;;;36.22;22.20;;;8.60;99.90;;;;;;4966753;28;20046;-86
2021/12/09 11:37:38;;;;;;;40.23;24.03;;;8.60;99.90;;;;;;4969953;28;20113;-84
2021/12/09 11:40:31;;;;;;;52.80;27.70;;;8.70;99.90;;;;;;4957704;28;20047;-85
2021/12/09 11:43:01;;;;;;;52.78;31.00;;;8.70;99.90;;;;;;4958352;28;20106;-86
2021/12/09 11:45:40;;;;;;;47.78;26.95;;;8.70;99.90;;;;;;4958445;28;20051;-86
2021/12/09 11:48:09;;;;;;;33.15;20.55;;;8.80;99.90;;;;;;4956767;28;20102;-85
2021/12/09 11:50:39;;;;;;;47.70;18.85;;;8.80;99.90;;;;;;4958142;28;20053;-85
2021/12/09 11:53:08;;;;;;;29.65;15.90;;;8.90;99.90;;;;;;4952954;28;20042;-84
2021/12/09 11:55:44;;;;;;;26.08;16.35;;;8.90;99.90;;;;;;4966181;28;20109;-85
2021/12/09 11:58:20;;;;;;;23.92;14.77;;;8.90;99.90;;;;;;4969079;28;20113;-84
2021/12/09 12:13:23;;;;;;;41.13;21.20;;;9.30;99.90;;;;;;4961877;28;20527;-83
2021/12/09 12:15:51;;;;;;;40.15;22.02;;;9.40;99.90;;;;;;4961371;28;20054;-83
2021/12/09 12:24:35;;;;;;;10.18;4.25;;;9.80;99.90;;;;;;4959936;28;20054;-82
2021/12/09 12:40:38;;;;;;;3.83;1.67;;;10.70;99.90;;;;;;4969467;28;20050;-83
2021/12/09 12:43:11;;;;;;;2.67;1.70;;;10.80;99.90;;;;;;4960619;28;20534;-83
2021/12/09 12:48:58;;;;;;;3.25;1.00;;;11.00;99.90;;;;;;4971715;28;20046;-84
2021/12/09 12:51:44;;;;;;;5.50;2.05;;;11.10;99.90;;;;;;4971546;28;20097;-84
2021/12/09 12:54:39;;;;;;;2.10;0.98;;;11.10;99.90;;;;;;4967608;28;20047;-84
2021/12/09 12:57:15;;;;;;;2.88;2.10;;;11.20;99.90;;;;;;4960442;28;20095;-83
2021/12/09 13:00:08;;;;;;;1.67;1.08;;;11.20;99.90;;;;;;4961287;28;20405;-83
2021/12/09 13:13:44;;;;;;;1.88;0.80;;;11.40;99.90;;;;;;4957093;28;20133;-84
2021/12/09 13:21:47;;;;;;;1.63;0.40;;;11.50;99.90;;;;;;4960084;28;20046;-84
2021/12/09 13:30:08;;;;;;;1.98;0.63;;;11.60;99.90;;;;;;4960366;28;20570;-84
2021/12/09 13:35:36;;;;;;;2.00;1.02;;;11.70;99.90;;;;;;4957776;28;20043;-84
2021/12/09 13:54:24;;;;;;;7.07;1.40;;;12.00;99.90;;;;;;4964270;28;20051;-85
2021/12/09 13:56:59;;;;;;;6.20;1.20;;;12.00;99.90;;;;;;4969430;28;20050;-83
2021/12/09 13:59:29;;;;;;;4.32;1.10;;;12.00;99.90;;;;;;4956184;28;20439;-84
2021/12/09 14:01:58;;;;;;;5.00;1.00;;;12.00;99.90;;;;;;4970632;28;20476;-84
2021/12/09 14:04:36;;;;;;;4.97;1.10;;;12.10;99.90;;;;;;4957376;28;20130;-85
2021/12/09 14:07:18;;;;;;;4.88;0.80;;;12.10;99.90;;;;;;4971000;28;20499;-84
2021/12/09 14:10:00;;;;;;;3.20;1.30;;;12.10;99.90;;;;;;4969653;28;20102;-81
2021/12/09 14:12:36;;;;;;;4.45;1.10;;;12.10;99.90;;;;;;4962949;28;20192;-84
2021/12/09 14:15:11;;;;;;;3.15;0.90;;;12.10;99.90;;;;;;4959571;28;20110;-82
2021/12/09 14:17:41;;;;;;;2.90;1.00;;;12.10;99.90;;;;;;4958421;28;20102;-83
2021/12/09 14:20:18;;;;;;;4.80;0.80;;;12.10;99.90;;;;;;4951754;28;20519;-83
2021/12/09 14:22:50;;;;;;;3.38;1.00;;;12.10;99.90;;;;;;4963742;28;20055;-84
2021/12/09 14:25:32;;;;;;;7.13;1.40;;;12.20;99.90;;;;;;4968569;28;20047;-83
2021/12/09 14:28:00;;;;;;;6.15;1.10;;;12.20;99.90;;;;;;4966457;28;20125;-83
2021/12/09 14:30:36;;;;;;;5.53;1.08;;;12.20;99.90;;;;;;4963870;28;20043;-85
2021/12/09 14:33:03;;;;;;;6.05;1.48;;;12.20;99.90;;;;;;4962434;28;20117;-82
2021/12/09 14:35:44;;;;;;;11.95;1.70;;;12.20;99.90;;;;;;4968573;28;20094;-81
2021/12/09 14:38:17;;;;;;;11.18;2.75;;;12.20;99.90;;;;;;4954820;28;20051;-82
2021/12/09 14:40:48;;;;;;;11.02;2.70;;;12.20;99.90;;;;;;4960137;28;20035;-83
2021/12/09 14:43:18;;;;;;;9.27;2.40;;;12.20;99.90;;;;;;4961120;28;20094;-84
2021/12/09 14:45:53;;;;;;;10.40;2.40;;;12.20;99.90;;;;;;4963747;28;20078;-85
2021/12/09 14:48:38;;;;;;;11.25;2.72;;;12.20;99.90;;;;;;4961331;28;20142;-84
2021/12/09 14:51:34;;;;;;;9.32;2.80;;;12.20;99.90;;;;;;4961675;28;20103;-81
2021/12/09 14:54:07;;;;;;;9.65;2.45;;;12.20;99.90;;;;;;4950976;28;20098;-82
2021/12/09 14:56:48;;;;;;;9.45;2.50;;;12.20;99.90;;;;;;4951050;28;20072;-83
2021/12/09 14:59:29;;;;;;;6.38;1.80;;;12.20;99.90;;;;;;4966165;28;20098;-82
2021/12/09 15:02:25;;;;;;;5.78;1.98;;;12.20;99.90;;;;;;4962901;28;20566;-83
2021/12/09 15:05:05;;;;;;;7.03;1.83;;;12.20;99.90;;;;;;4957715;28;20130;-83
2021/12/09 15:07:41;;;;;;;;;;;12.20;99.90;;;;;;4953972;28;20090;-81
2021/12/09 15:10:15;;;;;;;2.10;1.15;;;12.20;99.90;;;;;;4968426;28;19921;-82
2021/12/09 15:12:45;;;;;;;4.53;1.15;;;12.20;99.90;;;;;;4969558;28;20042;-82
2021/12/09 15:15:33;;;;;;;3.35;1.30;;;12.20;99.90;;;;;;4964594;28;20117;-82
2021/12/09 15:18:06;;;;;;;3.63;1.10;;;12.20;99.90;;;;;;4957463;28;20047;-81
2021/12/09 15:20:41;;;;;;;3.97;1.60;;;12.20;99.90;;;;;;4957357;28;20043;-84
2021/12/09 15:23:39;;;;;;;2.42;1.00;;;12.20;99.90;;;;;;4953922;28;20412;-82
2021/12/09 15:26:30;;;;;;;3.88;1.38;;;12.20;99.90;;;;;;4954238;28;20039;-82
2021/12/09 15:29:02;;;;;;;3.22;1.50;;;12.20;99.90;;;;;;4982537;28;20067;-83
2021/12/09 15:31:29;;;;;;;4.63;1.10;;;12.20;99.90;;;;;;4957116;28;20095;-82
2021/12/09 15:34:03;;;;;;;2.67;1.00;;;12.20;99.90;;;;;;4960275;28;20504;-83
2021/12/09 15:36:34;;;;;;;3.50;1.23;;;12.30;99.90;;;;;;4942977;29;20586;-82
2021/12/09 15:39:16;;;;;;;4.00;1.27;;;12.30;99.90;;;;;;4942235;29;20610;-83
2021/12/09 15:41:46;;;;;;;5.28;1.65;;;12.30;99.90;;;;;;4959647;28;20054;-83
2021/12/09 15:44:22;;;;;;;6.22;1.63;;;12.30;99.90;;;;;;4941466;28;20038;-85
2021/12/09 15:47:09;;;;;;;8.02;1.77;;;12.30;99.90;;;;;;4943529;28;20416;-85
2021/12/09 15:49:49;;;;;;;6.00;1.83;;;12.30;99.90;;;;;;4952791;28;20049;-80
2021/12/09 15:52:18;;;;;;;6.85;1.60;;;12.30;99.90;;;;;;4955296;28;20055;-81
2021/12/09 15:54:53;;;;;;;7.45;2.05;;;12.30;99.90;;;;;;4959019;28;20407;-82
2021/12/09 15:57:33;;;;;;;8.98;1.80;;;12.30;99.90;;;;;;4961960;28;20419;-82
2021/12/09 16:00:04;;;;;;;7.80;1.85;;;12.30;99.90;;;;;;4956434;28;20186;-84
2021/12/09 16:02:34;;;;;;;8.88;2.13;;;12.30;99.90;;;;;;4961682;28;20050;-83
2021/12/09 16:05:06;;;;;;;10.43;2.42;;;12.30;99.90;;;;;;4960786;28;20567;-81
2021/12/09 16:07:34;;;;;;;10.18;3.00;;;12.30;99.90;;;;;;4950170;28;20055;-82
2021/12/09 16:10:02;;;;;;;14.50;3.50;;;12.30;99.90;;;;;;4956680;28;20054;-83
2021/12/09 16:12:32;;;;;;;18.45;3.50;;;12.30;99.90;;;;;;4963700;28;20093;-82
2021/12/09 16:15:01;;;;;;;14.77;3.25;;;12.30;99.90;;;;;;4962973;28;20080;-84
2021/12/09 16:17:30;;;;;;;15.25;3.60;;;12.30;99.90;;;;;;4965568;28;20134;-82
2021/12/09 16:20:10;;;;;;;19.67;3.58;;;12.30;99.90;;;;;;4950890;28;20845;-83
2021/12/09 16:22:40;;;;;;;16.50;4.07;;;12.30;99.90;;;;;;4966761;28;20134;-84
2021/12/09 16:25:12;;;;;;;19.00;3.83;;;12.30;99.90;;;;;;4954441;28;20047;-83
2021/12/09 16:27:46;;;;;;;15.05;3.10;;;12.30;99.90;;;;;;4962663;28;20491;-84
2021/12/09 16:30:20;;;;;;;9.48;2.42;;;12.30;99.90;;;;;;4958846;28;20047;-83
2021/12/09 16:32:49;;;;;;;5.88;1.40;;;12.30;99.90;;;;;;4956969;28;20058;-84
2021/12/09 16:35:22;;;;;;;8.38;1.58;;;12.30;99.90;;;;;;4962065;28;20419;-84
2021/12/09 16:37:52;;;;;;;7.30;1.27;;;12.30;99.90;;;;;;4962311;28;20587;-84
2021/12/09 16:40:30;;;;;;;4.75;1.10;;;12.30;99.90;;;;;;4951424;28;20343;-84
2021/12/09 16:42:59;;;;;;;5.78;1.23;;;12.30;99.90;;;;;;4956013;28;20053;-83
2021/12/09 16:45:37;;;;;;;2.40;0.82;;;12.30;99.90;;;;;;4953744;28;20105;-83
2021/12/09 16:48:06;;;;;;;4.05;0.93;;;12.30;99.90;;;;;;4958614;28;20043;-83
2021/12/09 16:50:37;;;;;;;4.38;1.80;;;12.30;99.90;;;;;;4960246;28;20106;-83
2021/12/09 16:53:23;;;;;;;3.63;1.40;;;12.30;99.90;;;;;;4955886;28;20059;-83
2021/12/09 16:55:59;;;;;;;1.90;1.08;;;12.30;99.90;;;;;;4960185;28;20050;-85
2021/12/09 16:58:34;;;;;;;4.10;1.00;;;12.30;99.90;;;;;;4937477;28;20043;-85
2021/12/09 17:01:09;;;;;;;2.20;1.13;;;12.30;99.90;;;;;;4964264;28;20070;-83
2021/12/09 17:03:36;;;;;;;4.10;1.10;;;12.30;99.90;;;;;;4981783;28;20061;-83
2021/12/09 17:06:06;;;;;;;3.85;1.20;;;12.30;99.90;;;;;;4955640;28;20047;-84
2021/12/09 17:08:34;;;;;;;3.72;1.40;;;12.30;99.90;;;;;;4950016;28;20050;-84
2021/12/09 17:11:05;;;;;;;3.17;1.50;;;12.30;99.90;;;;;;4953396;28;20413;-84
2021/12/09 17:13:32;;;;;;;3.88;1.70;;;12.30;99.90;;;;;;4967614;28;20468;-83
2021/12/09 17:16:00;;;;;;;4.60;1.33;;;12.30;99.90;;;;;;4964238;28;20046;-83
2021/12/09 17:18:28;;;;;;;3.25;1.13;;;12.30;99.90;;;;;;4951925;28;20047;-83
2021/12/09 17:20:56;;;;;;;5.65;1.15;;;12.40;99.90;;;;;;4956046;28;20054;-82
2021/12/09 17:23:24;;;;;;;4.65;1.05;;;12.40;99.90;;;;;;4957147;28;20055;-83
2021/12/09 17:25:54;;;;;;;3.90;2.67;;;12.40;99.90;;;;;;4954640;28;20122;-82
2021/12/09 17:28:21;;;;;;;5.47;1.92;;;12.40;99.90;;;;;;4955096;28;20081;-82
2021/12/09 17:30:52;;;;;;;6.35;2.03;;;12.40;99.90;;;;;;4946071;28;20051;-83
2021/12/09 17:33:27;;;;;;;6.72;2.15;;;12.40;99.90;;;;;;4955338;28;20058;-84
2021/12/09 17:36:03;;;;;;;8.38;2.75;;;12.40;99.90;;;;;;4964292;28;20053;-84
2021/12/09 17:38:30;;;;;;;6.93;2.13;;;12.50;99.90;;;;;;4958197;28;20772;-81
2021/12/09 17:40:57;;;;;;;3.25;0.80;;;12.50;99.90;;;;;;4963869;28;20043;-82
2021/12/09 17:43:25;;;;;;;2.95;1.00;;;12.50;99.90;;;;;;4955686;28;20056;-82
2021/12/09 17:45:53;;;;;;;4.82;1.15;;;12.50;99.90;;;;;;4952015;28;20059;-85
2021/12/09 17:48:21;;;;;;;5.73;0.90;;;12.50;99.90;;;;;;4960845;28;20050;-85
2021/12/09 17:51:15;;;;;;;9.20;1.63;;;12.50;99.90;;;;;;4960561;28;20133;-84
2021/12/09 17:53:42;;;;;;;14.30;1.85;;;12.60;99.90;;;;;;4949835;28;20038;-82
2021/12/09 17:56:13;;;;;;;14.07;2.28;;;12.60;99.90;;;;;;4960783;28;20119;-83
2021/12/09 17:58:42;;;;;;;10.50;1.70;;;12.60;99.90;;;;;;4955186;28;20105;-86
2021/12/09 18:01:12;;;;;;;16.48;2.63;;;12.60;99.90;;;;;;4940091;28;20055;-83
2021/12/09 18:03:40;;;;;;;18.48;2.80;;;12.70;99.90;;;;;;4957007;28;20062;-84
2021/12/09 18:06:10;;;;;;;17.98;2.08;;;12.70;99.90;;;;;;4946761;28;20141;-84
2021/12/09 18:08:48;;;;;;;18.42;2.63;;;12.70;99.90;;;;;;4941847;28;20047;-83
2021/12/09 18:11:18;;;;;;;16.25;3.20;;;12.70;99.90;;;;;;4937720;28;20066;-84
2021/12/09 18:13:58;;;;;;;;;;;;;;;;;;;;;
2021/12/09 18:17:05;;;;;;;;;;;;;;;;;;;;;
2021/12/09 18:20:04;;;;;;;20.75;2.13;;;12.70;99.90;;;;;;4915184;28;20050;-86
2021/12/09 18:22:43;;;;;;;18.77;2.08;;;12.70;99.90;;;;;;4909929;28;20134;-86
2021/12/09 18:25:17;;;;;;;28.48;3.90;;;12.70;99.90;;;;;;4960484;28;20078;-85
2021/12/09 18:28:17;;;;;;;18.55;2.83;;;12.70;99.90;;;;;;4945437;28;20279;-85
2021/12/09 18:30:55;;;;;;;15.45;2.50;;;12.60;99.90;;;;;;4953941;28;20047;-84
2021/12/09 18:33:30;;;;;;;17.85;2.53;;;12.60;99.90;;;;;;4953996;28;20051;-85
2021/12/09 18:36:13;;;;;;;18.90;3.33;;;12.60;99.90;;;;;;4941199;28;20049;-84
2021/12/09 18:38:49;;;;;;;22.88;4.65;;;12.60;99.90;;;;;;4965894;28;20150;-83
2021/12/09 18:41:17;;;;;;;24.50;2.90;;;12.60;99.90;;;;;;4951636;28;20428;-84
2021/12/09 18:43:45;;;;;;;30.38;6.68;;;12.50;99.90;;;;;;4961880;28;20045;-86
2021/12/09 18:46:13;;;;;;;;;;;12.50;99.90;;;;;;4958663;28;20114;-85
2021/12/09 18:48:41;;;;;;;38.23;5.43;;;12.40;99.90;;;;;;4959805;28;19982;-85
2021/12/09 18:51:19;;;;;;;28.70;4.65;;;12.50;99.90;;;;;;4957151;28;20130;-85
2021/12/09 18:53:53;;;;;;;36.70;5.38;;;12.50;99.90;;;;;;4960533;28;20046;-86
2021/12/09 18:56:20;;;;;;;43.47;5.43;;;12.40;99.90;;;;;;4959778;28;20131;-85
2021/12/09 18:58:51;;;;;;;37.40;5.80;;;12.40;99.90;;;;;;4954222;28;20317;-85
2021/12/09 19:01:21;;;;;;;52.27;6.80;;;12.40;99.90;;;;;;4961830;28;20055;-86
2021/12/09 19:03:51;;;;;;;39.30;6.07;;;12.40;99.90;;;;;;4963307;28;20073;-84
2021/12/09 19:06:19;;;;;;;53.85;7.57;;;12.40;99.90;;;;;;4960957;28;20042;-84
2021/12/09 19:08:47;;;;;;;41.70;7.03;;;12.40;99.90;;;;;;4958252;28;20059;-83
2021/12/09 19:11:18;;;;;;;43.83;5.70;;;12.40;99.90;;;;;;4959908;28;20238;-84
2021/12/09 19:13:48;;;;;;;46.97;5.53;;;12.30;99.90;;;;;;4957296;28;20055;-84
2021/12/09 19:16:25;;;;;;;47.22;6.47;;;12.30;99.90;;;;;;4946524;28;20047;-85
2021/12/09 19:18:55;;;;;;;48.90;6.63;;;12.30;99.90;;;;;;4955913;28;20202;-84
2021/12/09 19:21:24;;;;;;;57.05;7.22;;;12.30;99.90;;;;;;4956520;28;20051;-86
2021/12/09 19:23:51;;;;;;;40.38;6.30;;;12.30;99.90;;;;;;4959330;28;20054;-84
2021/12/09 19:26:20;;;;;;;61.10;7.88;;;12.30;99.90;;;;;;4957237;28;20050;-85
2021/12/09 19:28:49;;;;;;;62.20;8.30;;;12.40;99.90;;;;;;4949943;28;20551;-86
2021/12/09 19:31:16;;;;;;;53.57;8.60;;;12.40;99.90;;;;;;4960523;28;20071;-84
2021/12/09 19:33:44;;;;;;;48.65;7.53;;;12.40;99.90;;;;;;4953161;28;20294;-85
2021/12/09 19:36:16;;;;;;;39.20;6.55;;;12.40;99.90;;;;;;4963687;28;20050;-85
2021/12/09 19:38:44;;;;;;;53.47;7.47;;;12.40;99.90;;;;;;4965583;28;20050;-84
2021/12/09 19:41:12;;;;;;;51.80;7.85;;;12.40;99.90;;;;;;4963985;28;20130;-86
2021/12/09 19:43:42;;;;;;;;;;;12.40;99.90;;;;;;4963320;28;20038;-85
2021/12/09 19:46:12;;;;;;;47.83;6.68;;;12.30;99.90;;;;;;4965821;28;19929;-85
2021/12/09 19:48:43;;;;;;;50.75;6.65;;;12.30;99.90;;;;;;4962624;28;20515;-85
2021/12/09 19:51:11;;;;;;;36.75;6.00;;;12.40;99.90;;;;;;4958411;28;20499;-86
2021/12/09 19:53:38;;;;;;;49.50;5.95;;;12.40;99.90;;;;;;4964857;28;20050;-86
2021/12/09 19:56:12;;;;;;;39.45;6.75;;;12.30;99.90;;;;;;4958790;28;20303;-85
2021/12/09 19:58:42;;;;;;;42.25;5.50;;;12.30;99.90;;;;;;4955744;28;20137;-86
2021/12/09 20:01:11;;;;;;;46.00;5.43;;;12.20;99.90;;;;;;4957478;28;20046;-85
2021/12/09 20:03:40;;;;;;;27.85;4.00;;;12.10;99.90;;;;;;4955333;28;20148;-84
2021/12/09 20:06:12;;;;;;;35.10;6.10;;;12.00;99.90;;;;;;4954838;28;20806;-84
2021/12/09 20:08:42;;;;;;;28.52;4.25;;;11.80;99.90;;;;;;4946235;28;20047;-84
2021/12/09 20:11:16;;;;;;;22.55;3.38;;;11.70;99.90;;;;;;4955374;28;20626;-85
2021/12/09 20:13:49;;;;;;;19.15;3.05;;;11.60;99.90;;;;;;4954205;28;20061;-84
2021/12/09 20:16:20;;;;;;;28.30;3.63;;;11.50;99.90;;;;;;4956794;28;20050;-84
2021/12/09 20:18:51;;;;;;;37.13;4.13;;;11.40;99.90;;;;;;4958712;28;20412;-84
2021/12/09 20:21:22;;;;;;;30.65;4.90;;;11.40;99.90;;;;;;4956568;28;20129;-84
2021/12/09 20:23:53;;;;;;;32.38;3.90;;;11.30;99.90;;;;;;4955615;28;20054;-85
2021/12/09 20:26:20;;;;;;;36.63;4.97;;;11.30;99.90;;;;;;4955134;28;20582;-83
2021/12/09 20:28:49;;;;;;;29.70;4.32;;;11.30;99.90;;;;;;4957517;28;20050;-85
2021/12/09 20:31:16;;;;;;;30.63;4.25;;;11.20;99.90;;;;;;4929311;28;20059;-85
2021/12/09 20:33:46;;;;;;;36.88;4.88;;;11.20;99.90;;;;;;4956455;28;20054;-85
2021/12/09 20:36:14;;;;;;;41.45;5.25;;;11.20;99.90;;;;;;4950272;28;20058;-84
2021/12/09 20:38:47;;;;;;;36.35;6.38;;;11.20;99.90;;;;;;4955185;28;20062;-85
2021/12/09 20:41:15;;;;;;;42.17;6.78;;;11.10;99.90;;;;;;4954708;28;20396;-84
2021/12/09 20:43:43;;;;;;;43.60;6.43;;;11.10;99.90;;;;;;4955807;28;20508;-84
2021/12/09 20:46:10;;;;;;;53.08;6.47;;;11.10;99.90;;;;;;4945957;28;20047;-83
2021/12/09 20:48:41;;;;;;;43.92;6.72;;;11.10;99.90;;;;;;4954790;28;20572;-86
2021/12/09 20:51:16;;;;;;;44.17;5.80;;;11.10;99.90;;;;;;4930474;28;20047;-84
2021/12/09 20:53:44;;;;;;;53.92;9.30;;;11.10;99.90;;;;;;4955219;28;20122;-84
2021/12/09 20:56:14;;;;;;;36.00;6.00;;;11.00;99.90;;;;;;4959224;28;20039;-87
2021/12/09 20:58:52;;;;;;;35.03;5.82;;;11.00;99.90;;;;;;4948831;28;20054;-86
2021/12/09 21:01:26;;;;;;;32.25;7.15;;;10.80;99.90;;;;;;4941173;28;20046;-85
2021/12/09 21:03:54;;;;;;;36.38;4.55;;;10.80;99.90;;;;;;4950997;28;20055;-84
2021/12/09 21:06:21;;;;;;;36.78;5.10;;;10.60;99.90;;;;;;4960888;28;20382;-84
2021/12/09 21:08:50;;;;;;;31.13;5.10;;;10.60;99.90;;;;;;4966214;28;20088;-83
2021/12/09 21:11:19;;;;;;;34.47;5.72;;;10.50;99.90;;;;;;4958590;28;20054;-84
2021/12/09 21:13:46;;;;;;;40.08;5.13;;;10.50;99.90;;;;;;4964597;28;20164;-85
2021/12/09 21:16:13;;;;;;;33.63;5.60;;;10.50;99.90;;;;;;4965551;28;20059;-84
2021/12/09 21:18:45;;;;;;;37.50;7.20;;;10.50;99.90;;;;;;4958871;28;20478;-84
2021/12/09 21:21:14;;;;;;;40.25;6.95;;;10.40;99.90;;;;;;4963744;28;20043;-85
2021/12/09 21:23:43;;;;;;;35.20;6.03;;;10.40;99.90;;;;;;4957792;28;20043;-84
2021/12/09 21:26:23;;;;;;;39.75;6.07;;;10.40;99.90;;;;;;4959738;28;20463;-85
2021/12/09 21:28:53;;;;;;;56.50;7.53;;;10.40;99.90;;;;;;4966691;28;20118;-85
2021/12/09 21:31:29;;;;;;;63.97;7.63;;;10.40;99.90;;;;;;4966588;28;20057;-85
2021/12/09 21:34:08;;;;;;;52.33;8.07;;;10.40;99.90;;;;;;4963138;28;20165;-84
2021/12/09 21:36:43;;;;;;;64.80;8.88;;;10.30;99.90;;;;;;4966253;28;20404;-87